Time;durP1;ratioP1;P1;durP2;ratioP2;P2;SDS_P1;SDS_P2;PMS_P1;PMS_P2;Temp;Humidity;BMP_temperature;BMP_pressure;BME280_temperature;BME280_humidity;BME280_pressure;Samples;Min_cycle;Max_cycle;Signal;HPM_P1;HPM_P2
2024/01/08 00:00:19;;;;;;;;;;;;;;;17.80;69.40;99596.63;7391205;19;1512;-43
2024/01/08 00:02:48;;;;;;;;;;;;;;;17.72;69.53;99599.25;7390312;19;1248;-43
2024/01/08 00:05:17;;;;;;;;;;;;;;;17.78;69.27;99620.00;7389258;19;1436;-43
2024/01/08 00:07:45;;;;;;;;;;;;;;;17.61;69.82;99615.56;7389542;19;1396;-43
2024/01/08 00:10:14;;;;;;;;;;;;;;;17.65;69.80;99624.94;7390491;19;1256;-43
2024/01/08 00:12:44;;;;;;;;;;;;;;;17.76;69.81;99607.78;7387299;19;1272;-42
2024/01/08 00:15:13;;;;;;;;;;;;;;;17.67;69.88;99621.09;7389183;19;1417;-42
2024/01/08 00:17:41;;;;;;;;;;;;;;;17.71;69.65;99618.97;7389340;19;1847;-43
2024/01/08 00:20:11;;;;;;;;;;;;;;;17.82;69.54;99628.56;7396438;19;1564;-43
2024/01/08 00:22:39;;;;;;;;;;;;;;;17.84;69.15;99630.13;7398990;19;1035;-43
2024/01/08 00:25:08;;;;;;;;;;;;;;;17.65;69.39;99631.13;7398475;19;1551;-42
2024/01/08 00:27:36;;;;;;;;;;;;;;;17.61;69.87;99647.63;7396741;19;1929;-43
2024/01/08 00:30:08;;;;;;;;;;;;;;;17.65;69.65;99643.66;7396869;19;1278;-43
2024/01/08 00:32:36;;;;;;;;;;;;;;;17.76;69.63;99648.75;7396649;19;1521;-43
2024/01/08 00:35:05;;;;;;;;;;;;;;;17.73;69.29;99645.56;7397088;19;1461;-44
2024/01/08 00:37:35;;;;;;;;;;;;;;;17.77;69.27;99671.00;7396561;19;1414;-43
2024/01/08 00:40:04;;;;;;;;;;;;;;;17.73;68.96;99670.47;7394681;19;1841;-43
2024/01/08 00:42:32;;;;;;;;;;;;;;;17.62;69.56;99663.50;7396267;19;1595;-42
2024/01/08 00:45:01;;;;;;;;;;;;;;;17.50;69.79;99664.72;7397095;19;1664;-43
2024/01/08 00:47:32;;;;;;;;;;;;;;;17.59;69.89;99657.63;7396143;19;1588;-43
2024/01/08 00:50:00;;;;;;;;;;;;;;;17.63;69.81;99675.88;7397005;19;1659;-43
2024/01/08 00:52:28;;;;;;;;;;;;;;;17.65;69.56;99667.72;7395794;19;1808;-47
2024/01/08 00:55:01;;;;;;;;;;;;;;;17.64;69.50;99658.00;7396447;19;1569;-42
2024/01/08 00:57:29;;;;;;;;;;;;;;;17.69;69.50;99667.25;7397232;19;1722;-43
2024/01/08 00:59:58;;;;;;;;;;;;;;;17.79;68.97;99680.53;7393919;19;1837;-43
2024/01/08 01:02:26;;;;;;;;;;;;;;;17.55;69.76;99701.66;7396746;19;1464;-42
2024/01/08 01:04:57;;;;;;;;;;;;;;;17.57;69.81;99681.84;7396992;19;1537;-44
2024/01/08 01:07:26;;;;;;;;;;;;;;;17.60;69.82;99692.22;7395946;19;1635;-44
2024/01/08 01:09:54;;;;;;;;;;;;;;;17.64;69.72;99692.75;7396836;19;1097;-43
2024/01/08 01:12:22;;;;;;;;;;;;;;;17.68;69.46;99707.50;7395329;19;1275;-43
2024/01/08 01:14:51;;;;;;;;;;;;;;;17.65;69.51;99689.09;7396723;19;1747;-43
2024/01/08 01:17:16;;;;;;;;;;;;;;;17.66;69.15;99678.22;7396108;19;1593;-42
2024/01/08 01:19:45;;;;;;;;;;;;;;;17.54;69.68;99705.34;7393375;19;1885;-43
2024/01/08 01:22:16;;;;;;;;;;;;;;;17.54;69.87;99697.34;7395603;19;1521;-43
2024/01/08 01:24:44;;;;;;;;;;;;;;;17.61;69.68;99695.75;7396156;19;1374;-43
2024/01/08 01:27:12;;;;;;;;;;;;;;;17.63;69.44;99701.78;7395758;19;1184;-43
2024/01/08 01:29:41;;;;;;;;;;;;;;;17.66;69.27;99686.25;7395597;19;1885;-44
2024/01/08 01:32:09;;;;;;;;;;;;;;;17.67;69.45;99689.78;7394013;19;1382;-43
2024/01/08 01:34:39;;;;;;;;;;;;;;;17.67;69.43;99682.59;7396680;19;971;-42
2024/01/08 01:37:07;;;;;;;;;;;;;;;17.54;69.50;99697.34;7396196;19;1108;-43
2024/01/08 01:39:38;;;;;;;;;;;;;;;17.56;69.69;99696.19;7393620;19;1861;-43
2024/01/08 01:42:06;;;;;;;;;;;;;;;17.61;69.68;99701.09;7394082;19;1315;-43
2024/01/08 01:44:35;;;;;;;;;;;;;;;17.60;69.66;99710.09;7396039;19;1385;-43
2024/01/08 01:47:03;;;;;;;;;;;;;;;17.64;69.64;99704.28;7393684;19;1187;-42
2024/01/08 01:49:31;;;;;;;;;;;;;;;17.69;69.09;99706.50;7395385;19;1547;-43
2024/01/08 01:51:59;;;;;;;;;;;;;;;17.66;69.05;99718.34;7394728;19;1572;-42
2024/01/08 01:54:29;;;;;;;;;;;;;;;17.61;69.29;99723.31;7395117;19;1835;-43
2024/01/08 01:57:01;;;;;;;;;;;;;;;17.87;68.99;99703.88;7393940;19;1286;-42
2024/01/08 01:59:30;;;;;;;;;;;;;;;18.01;68.22;99718.53;7393757;19;1845;-43
2024/01/08 02:01:59;;;;;;;;;;;;;;;17.88;68.72;99727.75;7395064;19;1476;-43
2024/01/08 02:04:28;;;;;;;;;;;;;;;17.78;68.71;99713.59;7395963;19;2002;-43
2024/01/08 02:06:56;;;;;;;;;;;;;;;17.79;68.73;99734.00;7393802;19;1486;-43
2024/01/08 02:09:25;;;;;;;;;;;;;;;17.78;69.00;99721.63;7394922;19;1496;-43
2024/01/08 02:11:53;;;;;;;;;;;;;;;17.71;69.04;99731.25;7394706;19;1802;-43
2024/01/08 02:14:24;;;;;;;;;;;;;;;17.60;69.30;99728.81;7394635;19;1599;-43
2024/01/08 02:16:53;;;;;;;;;;;;;;;17.60;69.38;99734.16;7393514;19;1576;-49
2024/01/08 02:19:21;;;;;;;;;;;;;;;17.64;69.55;99735.53;7392754;19;1843;-43
2024/01/08 02:21:49;;;;;;;;;;;;;;;17.65;69.32;99727.38;7393251;19;1660;-43
2024/01/08 02:24:20;;;;;;;;;;;;;;;17.64;69.28;99730.19;7394862;19;1098;-42
2024/01/08 02:26:49;;;;;;;;;;;;;;;17.65;69.14;99731.88;7393896;19;1185;-43
2024/01/08 02:29:19;;;;;;;;;;;;;;;17.61;69.23;99727.81;7392629;19;1694;-43
2024/01/08 02:31:48;;;;;;;;;;;;;;;17.49;69.69;99733.38;7393810;19;1196;-43
2024/01/08 02:34:16;;;;;;;;;;;;;;;17.48;69.66;99731.69;7392899;19;1161;-43
2024/01/08 02:36:44;;;;;;;;;;;;;;;17.56;69.52;99738.13;7393742;19;1432;-45
2024/01/08 02:39:13;;;;;;;;;;;;;;;17.61;69.38;99739.34;7392342;19;1964;-43
2024/01/08 02:41:44;;;;;;;;;;;;;;;17.55;69.41;99747.97;7391599;19;1825;-43
2024/01/08 02:44:12;;;;;;;;;;;;;;;17.61;69.42;99763.41;7391633;19;1177;-43
2024/01/08 02:46:41;;;;;;;;;;;;;;;17.60;69.04;99763.56;7392924;19;1769;-43
2024/01/08 02:49:09;;;;;;;;;;;;;;;17.55;69.33;99764.03;7393244;19;1481;-43
2024/01/08 02:51:37;;;;;;;;;;;;;;;17.52;69.30;99774.16;7392852;19;1387;-43
2024/01/08 02:54:05;;;;;;;;;;;;;;;17.77;68.87;99769.94;7393495;19;1549;-43
2024/01/08 02:56:34;;;;;;;;;;;;;;;17.83;68.70;99770.19;7393634;19;1432;-43
2024/01/08 02:59:06;;;;;;;;;;;;;;;17.78;68.57;99750.19;7392256;19;1843;-43
2024/01/08 03:01:36;;;;;;;;;;;;;;;17.73;68.83;99763.22;7392582;19;1884;-43
2024/01/08 03:04:04;;;;;;;;;;;;;;;17.68;68.73;99751.09;7392180;19;1478;-43
2024/01/08 03:06:33;;;;;;;;;;;;;;;17.68;68.80;99760.97;7391787;19;1741;-43
2024/01/08 03:09:01;;;;;;;;;;;;;;;17.61;68.78;99757.22;7391751;19;1375;-43
2024/01/08 03:11:30;;;;;;;;;;;;;;;17.64;68.67;99762.25;7392210;19;1579;-43
2024/01/08 03:13:58;;;;;;;;;;;;;;;17.50;69.12;99760.94;7391434;19;1492;-43
2024/01/08 03:16:29;;;;;;;;;;;;;;;17.50;69.32;99767.13;7392499;19;1677;-44
2024/01/08 03:18:57;;;;;;;;;;;;;;;17.55;69.15;99773.84;7390127;19;1852;-43
2024/01/08 03:21:26;;;;;;;;;;;;;;;17.60;69.13;99768.91;7392238;19;1230;-43
2024/01/08 03:23:54;;;;;;;;;;;;;;;17.55;69.19;99777.38;7392836;19;1935;-43
2024/01/08 03:26:22;;;;;;;;;;;;;;;17.48;69.09;99771.78;7391927;19;1490;-43
2024/01/08 03:28:51;;;;;;;;;;;;;;;17.54;68.87;99777.53;7391060;19;1369;-44
2024/01/08 03:31:19;;;;;;;;;;;;;;;17.45;69.17;99757.91;7390569;19;1756;-43
2024/01/08 03:33:50;;;;;;;;;;;;;;;17.44;69.53;99770.41;7392026;19;1956;-43
2024/01/08 03:36:19;;;;;;;;;;;;;;;17.50;69.38;99767.13;7391292;19;1737;-43
2024/01/08 03:38:47;;;;;;;;;;;;;;;17.59;69.12;99776.09;7391131;19;1841;-43
2024/01/08 03:41:15;;;;;;;;;;;;;;;17.54;68.98;99775.69;7390255;19;1528;-43
2024/01/08 03:43:44;;;;;;;;;;;;;;;17.50;69.17;99776.97;7389614;19;1449;-43
2024/01/08 03:46:12;;;;;;;;;;;;;;;17.49;68.96;99769.97;7390974;19;1519;-43
2024/01/08 03:48:41;;;;;;;;;;;;;;;17.72;68.65;99791.75;7392258;19;950;-43
2024/01/08 03:51:12;;;;;;;;;;;;;;;17.84;68.12;99774.53;7392310;19;1101;-43
2024/01/08 03:53:40;;;;;;;;;;;;;;;17.79;68.32;99786.66;7393152;19;1521;-43
2024/01/08 03:56:09;;;;;;;;;;;;;;;17.65;68.58;99780.00;7398864;19;1850;-43
2024/01/08 03:58:39;;;;;;;;;;;;;;;17.63;68.62;99769.44;7398754;19;1445;-43
2024/01/08 04:01:07;;;;;;;;;;;;;;;17.57;68.77;99786.09;7395714;19;1871;-43
2024/01/08 04:03:36;;;;;;;;;;;;;;;17.59;68.75;99794.81;7398568;19;1638;-43
2024/01/08 04:06:04;;;;;;;;;;;;;;;18.01;67.60;99806.81;7396692;19;1418;-43
2024/01/08 04:08:35;;;;;;;;;;;;;;;18.20;66.94;99819.16;7397493;19;1382;-43
2024/01/08 04:11:03;;;;;;;;;;;;;;;18.21;67.01;99819.03;7397032;19;1415;-43
2024/01/08 04:13:32;;;;;;;;;;;;;;;18.16;67.23;99821.31;7399163;19;1108;-43
2024/01/08 04:16:01;;;;;;;;;;;;;;;17.98;67.54;99831.16;7396690;19;1785;-43
2024/01/08 04:18:29;;;;;;;;;;;;;;;17.85;67.85;99829.72;7397326;19;1568;-43
2024/01/08 04:20:57;;;;;;;;;;;;;;;17.89;67.79;99851.66;7392734;19;1835;-43
2024/01/08 04:23:26;;;;;;;;;;;;;;;18.00;67.56;99853.25;7397727;19;1577;-43
2024/01/08 04:25:57;;;;;;;;;;;;;;;18.15;67.09;99862.44;7394269;19;1455;-44
2024/01/08 04:28:25;;;;;;;;;;;;;;;18.35;66.45;99855.13;7393867;19;1237;-43
2024/01/08 04:30:51;;;;;;;;;;;;;;;18.39;66.13;99896.63;7395662;19;1446;-42
2024/01/08 04:33:19;;;;;;;;;;;;;;;18.48;65.97;99868.09;7396612;19;1216;-42
2024/01/08 04:35:47;;;;;;;;;;;;;;;17.83;65.91;99764.84;7397126;19;1271;-43
2024/01/08 04:38:16;;;;;;;;;;;;;;;18.47;66.01;99887.84;7397960;19;1472;-42
2024/01/08 04:40:44;;;;;;;;;;;;;;;18.44;66.04;99880.97;7395397;19;1843;-43
2024/01/08 04:43:15;;;;;;;;;;;;;;;18.50;65.91;99892.88;7397295;19;1311;-43
2024/01/08 04:45:44;;;;;;;;;;;;;;;18.54;65.76;99886.22;7396690;19;1831;-42
2024/01/08 04:48:12;;;;;;;;;;;;;;;18.60;65.41;99901.69;7396615;19;1808;-42
2024/01/08 04:50:40;;;;;;;;;;;;;;;18.76;65.11;99900.13;7396026;19;1870;-42
2024/01/08 04:53:08;;;;;;;;;;;;;;;18.85;65.13;99901.91;7397061;19;1828;-43
2024/01/08 04:55:37;;;;;;;;;;;;;;;18.89;64.69;99887.22;7396794;19;1469;-43
2024/01/08 04:58:08;;;;;;;;;;;;;;;19.00;64.48;99916.44;7396019;19;1792;-42
2024/01/08 05:00:39;;;;;;;;;;;;;;;19.05;64.28;99897.22;7394648;19;1847;-43
2024/01/08 05:03:11;;;;;;;;;;;;;;;19.01;64.25;99928.84;7394390;19;1494;-43
2024/01/08 05:05:37;;;;;;;;;;;;;;;19.01;64.18;99914.59;7394722;19;1373;-43
2024/01/08 05:08:06;;;;;;;;;;;;;;;19.02;64.23;99913.59;7395611;19;1477;-43
2024/01/08 05:10:35;;;;;;;;;;;;;;;19.07;64.09;99914.81;7397064;19;1148;-42
2024/01/08 05:13:03;;;;;;;;;;;;;;;19.08;63.79;99919.19;7396604;19;1831;-43
2024/01/08 05:15:32;;;;;;;;;;;;;;;19.06;63.87;99944.47;7396370;19;1936;-43
2024/01/08 05:18:03;;;;;;;;;;;;;;;19.16;63.61;99957.75;7396487;19;1756;-43
2024/01/08 05:20:32;;;;;;;;;;;;;;;19.12;63.62;99967.09;7394775;19;1841;-43
2024/01/08 05:23:01;;;;;;;;;;;;;;;19.12;63.71;99957.22;7393787;19;1735;-42
2024/01/08 05:25:29;;;;;;;;;;;;;;;19.13;63.43;99963.44;7396636;19;1311;-43
2024/01/08 05:27:57;;;;;;;;;;;;;;;19.21;63.31;100009.06;7395531;19;1520;-43
2024/01/08 05:30:26;;;;;;;;;;;;;;;19.22;63.00;99968.69;7396344;19;1160;-43
2024/01/08 05:32:54;;;;;;;;;;;;;;;19.18;63.33;99966.47;7395393;19;1583;-43
2024/01/08 05:35:25;;;;;;;;;;;;;;;19.15;63.26;99969.47;7395788;19;1148;-43
2024/01/08 05:37:53;;;;;;;;;;;;;;;19.18;63.14;99990.59;7395177;19;1702;-42
2024/01/08 05:40:22;;;;;;;;;;;;;;;19.22;63.13;99983.94;7394298;19;1843;-43
2024/01/08 05:42:50;;;;;;;;;;;;;;;19.20;63.07;99993.94;7395296;19;1576;-43
2024/01/08 05:45:19;;;;;;;;;;;;;;;18.57;62.75;99880.56;7395300;19;1809;-43
2024/01/08 05:47:47;;;;;;;;;;;;;;;19.16;63.10;99984.53;7393701;19;1419;-42
2024/01/08 05:50:16;;;;;;;;;;;;;;;19.21;63.08;99987.59;7394155;19;2078;-43
2024/01/08 05:52:48;;;;;;;;;;;;;;;19.24;62.76;99981.94;7395232;19;1649;-43
2024/01/08 05:55:16;;;;;;;;;;;;;;;19.23;62.79;99981.09;7394792;19;1319;-43
2024/01/08 05:57:45;;;;;;;;;;;;;;;19.21;62.71;99990.28;7394504;19;1766;-43
2024/01/08 06:00:14;;;;;;;;;;;;;;;19.19;62.91;99978.88;7392119;19;1851;-43
2024/01/08 06:02:42;;;;;;;;;;;;;;;19.05;63.15;99997.19;7394430;19;1204;-43
2024/01/08 06:05:11;;;;;;;;;;;;;;;19.15;62.76;99989.06;7393996;19;1129;-42
2024/01/08 06:07:40;;;;;;;;;;;;;;;19.19;62.54;100000.31;7394175;19;1747;-43
2024/01/08 06:10:11;;;;;;;;;;;;;;;19.20;62.82;100012.72;7395477;19;1132;-43
2024/01/08 06:12:39;;;;;;;;;;;;;;;19.13;62.98;99990.22;7394316;19;1174;-43
2024/01/08 06:15:08;;;;;;;;;;;;;;;19.16;63.07;100014.03;7392193;19;1811;-42
2024/01/08 06:17:36;;;;;;;;;;;;;;;19.13;63.27;100028.56;7393681;19;1481;-42
2024/01/08 06:20:05;;;;;;;;;;;;;;;18.95;63.84;100025.06;7394376;19;1841;-43
2024/01/08 06:22:33;;;;;;;;;;;;;;;18.90;63.88;100022.88;7392654;19;1540;-43
2024/01/08 06:25:02;;;;;;;;;;;;;;;18.89;64.28;100053.31;7391916;19;1386;-43
2024/01/08 06:27:33;;;;;;;;;;;;;;;18.79;64.34;100052.50;7392029;19;1483;-42
2024/01/08 06:30:01;;;;;;;;;;;;;;;18.78;64.47;100058.84;7392549;19;1375;-42
2024/01/08 06:32:29;;;;;;;;;;;;;;;18.81;64.35;100082.69;7392277;19;1271;-42
2024/01/08 06:34:58;;;;;;;;;;;;;;;18.76;64.52;100068.88;7394189;19;1756;-43
2024/01/08 06:37:26;;;;;;;;;;;;;;;18.77;64.44;100067.88;7393968;19;1299;-43
2024/01/08 06:39:54;;;;;;;;;;;;;;;18.76;64.66;100092.97;7393482;19;1869;-43
2024/01/08 06:42:23;;;;;;;;;;;;;;;18.77;64.67;100094.69;7392173;19;1157;-43
2024/01/08 06:44:54;;;;;;;;;;;;;;;18.77;64.31;100100.88;7392622;19;1656;-43
2024/01/08 06:47:23;;;;;;;;;;;;;;;18.74;64.26;100087.78;7392763;19;1216;-42
2024/01/08 06:49:51;;;;;;;;;;;;;;;18.75;64.54;100104.69;7392162;19;1394;-43
2024/01/08 06:52:19;;;;;;;;;;;;;;;18.78;64.34;100097.22;7391353;19;1152;-42
2024/01/08 06:54:48;;;;;;;;;;;;;;;18.82;64.38;100112.03;7393008;19;1173;-43
2024/01/08 06:57:16;;;;;;;;;;;;;;;18.78;64.22;100099.03;7392458;19;1856;-43
2024/01/08 06:59:44;;;;;;;;;;;;;;;18.80;64.19;100100.63;7392440;19;1858;-43
2024/01/08 07:02:16;;;;;;;;;;;;;;;18.82;64.29;100121.88;7391061;19;1806;-43
2024/01/08 07:04:45;;;;;;;;;;;;;;;18.78;64.29;100109.75;7392888;19;1528;-43
2024/01/08 07:07:13;;;;;;;;;;;;;;;18.76;64.11;100127.78;7392505;19;1719;-43
2024/01/08 07:09:42;;;;;;;;;;;;;;;18.76;64.21;100117.94;7394459;19;1595;-43
2024/01/08 07:12:10;;;;;;;;;;;;;;;18.77;64.14;100124.97;7393356;19;1210;-43
2024/01/08 07:14:46;;;;;;;;;;;;;;;18.86;64.02;100155.41;7394766;19;1161;-43
2024/01/08 07:17:17;;;;;;;;;;;;;;;18.75;64.11;100147.56;7391852;19;1324;-42
2024/01/08 07:19:45;;;;;;;;;;;;;;;18.61;64.28;100160.44;7391897;19;1523;-43
2024/01/08 07:22:14;;;;;;;;;;;;;;;18.57;64.27;100172.44;7389125;19;1832;-43
2024/01/08 07:24:42;;;;;;;;;;;;;;;18.64;64.42;100161.97;7392354;19;1195;-43
2024/01/08 07:27:10;;;;;;;;;;;;;;;18.75;64.37;100164.47;7390474;19;1239;-43
2024/01/08 07:29:39;;;;;;;;;;;;;;;18.83;64.09;100186.03;7390019;19;1173;-43
2024/01/08 07:32:08;;;;;;;;;;;;;;;18.87;63.95;100170.50;7392798;19;1026;-43
2024/01/08 07:34:39;;;;;;;;;;;;;;;18.88;64.07;100188.28;7390931;19;1585;-43
2024/01/08 07:37:08;;;;;;;;;;;;;;;18.88;63.87;100207.03;7391606;19;1826;-43
2024/01/08 07:39:36;;;;;;;;;;;;;;;18.90;63.19;100209.53;7391634;19;1411;-43
2024/01/08 07:42:04;;;;;;;;;;;;;;;18.95;62.28;100196.53;7372394;19;1838;-43
2024/01/08 07:44:33;;;;;;;;;;;;;;;18.95;62.15;100185.81;7391072;19;1556;-46
2024/01/08 07:47:01;;;;;;;;;;;;;;;18.92;62.31;100216.44;7391400;19;1565;-46
2024/01/08 07:49:29;;;;;;;;;;;;;;;18.88;61.96;100212.38;7391024;19;1168;-46
2024/01/08 07:52:00;;;;;;;;;;;;;;;18.90;61.61;100210.41;7391463;19;1640;-46
2024/01/08 07:54:38;;;;;;;;;;;;;;;18.96;61.61;100209.81;7389310;19;1651;-46
2024/01/08 07:57:07;;;;;;;;;;;;;;;18.97;61.89;100226.72;7392149;19;1532;-46
2024/01/08 07:59:35;;;;;;;;;;;;;;;18.99;62.25;100227.41;7390263;19;1196;-47
2024/01/08 08:02:04;;;;;;;;;;;;;;;19.02;62.15;100230.63;7389148;19;1846;-46
2024/01/08 08:04:32;;;;;;;;;;;;;;;19.05;62.11;100241.03;7392269;19;1209;-46
2024/01/08 08:07:03;;;;;;;;;;;;;;;19.03;62.03;100247.56;7389138;19;2546;-46
2024/01/08 08:09:32;;;;;;;;;;;;;;;19.08;62.29;100238.09;7390765;19;1837;-45
2024/01/08 08:12:00;;;;;;;;;;;;;;;19.15;61.84;100253.56;7390073;19;1309;-46
2024/01/08 08:14:28;;;;;;;;;;;;;;;19.15;61.97;100250.88;7391590;19;1177;-46
2024/01/08 08:16:57;;;;;;;;;;;;;;;19.06;62.12;100263.34;7389967;19;1931;-46
2024/01/08 08:19:25;;;;;;;;;;;;;;;19.07;62.39;100273.91;7390796;19;1595;-46
2024/01/08 08:21:53;;;;;;;;;;;;;;;19.03;62.25;100269.81;7387663;19;1850;-46
2024/01/08 08:24:24;;;;;;;;;;;;;;;19.03;62.48;100274.34;7390407;19;1203;-46
2024/01/08 08:26:53;;;;;;;;;;;;;;;19.04;62.53;100278.75;7390982;19;1516;-46
2024/01/08 08:29:21;;;;;;;;;;;;;;;19.11;62.43;100295.06;7391068;19;1113;-43
2024/01/08 08:31:50;;;;;;;;;;;;;;;19.16;62.02;100300.81;7388775;19;1859;-43
2024/01/08 08:34:18;;;;;;;;;;;;;;;19.12;62.06;100297.59;7387796;19;1469;-43
2024/01/08 08:36:46;;;;;;;;;;;;;;;19.07;62.24;100302.53;7389812;19;1488;-43
2024/01/08 08:39:16;;;;;;;;;;;;;;;19.07;62.17;100300.69;7389528;19;1301;-43
2024/01/08 08:41:47;;;;;;;;;;;;;;;19.25;61.57;100321.38;7381293;19;1848;-44
2024/01/08 08:44:17;;;;;;;;;;;;;;;19.28;61.51;100326.44;7397779;19;1659;-43
2024/01/08 08:46:45;;;;;;;;;;;;;;;19.23;61.64;100328.72;7397947;19;1528;-43
2024/01/08 08:49:14;;;;;;;;;;;;;;;19.26;61.76;100344.53;7397232;19;1370;-42
2024/01/08 08:51:43;;;;;;;;;;;;;;;19.31;61.61;100352.09;7398064;19;1265;-43
2024/01/08 08:54:11;;;;;;;;;;;;;;;19.22;61.47;100354.69;7396806;19;1837;-43
2024/01/08 08:56:40;;;;;;;;;;;;;;;19.07;61.15;100343.56;7397692;19;1414;-42
2024/01/08 08:59:11;;;;;;;;;;;;;;;18.97;61.11;100356.16;7397298;19;1925;-43
2024/01/08 09:01:39;;;;;;;;;;;;;;;18.84;61.28;100358.31;7396221;19;1842;-43
2024/01/08 09:04:07;;;;;;;;;;;;;;;18.77;61.61;100366.06;7397171;19;1379;-43
2024/01/08 09:06:36;;;;;;;;;;;;;;;18.64;61.16;100357.47;7396826;19;1236;-44
2024/01/08 09:09:04;;;;;;;;;;;;;;;18.76;61.73;100361.69;7397165;19;1315;-43
2024/01/08 09:11:34;;;;;;;;;;;;;;;18.81;61.69;100372.00;7389011;19;1229;-42
2024/01/08 09:14:02;;;;;;;;;;;;;;;18.77;61.89;100371.41;7395657;19;1023;-43
2024/01/08 09:16:34;;;;;;;;;;;;;;;18.85;61.61;100387.63;7380085;19;1140;-43
2024/01/08 09:19:03;;;;;;;;;;;;;;;18.84;61.76;100377.06;7394424;19;1816;-42
2024/01/08 09:21:31;;;;;;;;;;;;;;;18.85;61.89;100397.53;7392538;19;1857;-43
2024/01/08 09:23:59;;;;;;;;;;;;;;;18.74;62.13;100379.75;7395579;19;1111;-43
2024/01/08 09:26:28;;;;;;;;;;;;;;;18.74;62.16;100376.19;7391860;19;1568;-42
2024/01/08 09:28:56;;;;;;;;;;;;;;;18.79;62.03;100392.69;7394804;19;1893;-44
2024/01/08 09:31:25;;;;;;;;;;;;;;;18.81;62.00;100383.56;7394833;19;1735;-43
2024/01/08 09:33:55;;;;;;;;;;;;;;;18.91;61.82;100383.53;7395024;19;1282;-42
2024/01/08 09:36:24;;;;;;;;;;;;;;;18.84;61.83;100398.50;7393743;19;1378;-43
2024/01/08 09:38:52;;;;;;;;;;;;;;;18.61;62.15;100387.22;7394959;19;1587;-43
2024/01/08 09:41:21;;;;;;;;;;;;;;;18.69;62.20;100403.44;7392358;19;1845;-43
2024/01/08 09:43:51;;;;;;;;;;;;;;;18.77;62.14;100400.88;7378380;19;1572;-43
2024/01/08 09:46:25;;;;;;;;;;;;;;;18.83;62.06;100407.53;7392715;19;1395;-43
2024/01/08 09:48:57;;;;;;;;;;;;;;;18.78;62.11;100407.94;7394553;19;1299;-43
2024/01/08 09:51:26;;;;;;;;;;;;;;;18.57;62.21;100424.16;7391907;19;1288;-43
2024/01/08 09:53:55;;;;;;;;;;;;;;;18.33;62.75;100411.19;7395478;19;1018;-43
2024/01/08 09:56:24;;;;;;;;;;;;;;;18.16;63.62;100428.75;7394599;19;1780;-43
2024/01/08 09:58:52;;;;;;;;;;;;;;;18.54;62.69;100437.81;7392681;19;1563;-43
2024/01/08 10:01:21;;;;;;;;;;;;;;;18.98;61.44;100427.53;7392553;19;1854;-43
2024/01/08 10:03:49;;;;;;;;;;;;;;;18.81;61.89;100442.50;7394324;19;1560;-43
2024/01/08 10:06:20;;;;;;;;;;;;;;;18.65;62.44;100439.50;7393228;19;1727;-43
2024/01/08 10:08:48;;;;;;;;;;;;;;;18.60;62.33;100415.84;7390758;19;1528;-43
2024/01/08 10:11:18;;;;;;;;;;;;;;;18.69;61.76;100439.09;7387840;19;1672;-44
2024/01/08 10:13:46;;;;;;;;;;;;;;;18.83;61.19;100419.09;7391797;19;1373;-42
2024/01/08 10:16:14;;;;;;;;;;;;;;;19.03;60.57;100432.47;7392394;19;1291;-43
2024/01/08 10:18:42;;;;;;;;;;;;;;;18.98;61.25;100424.00;7392726;19;1610;-43
2024/01/08 10:21:12;;;;;;;;;;;;;;;18.95;61.31;100438.53;7393605;19;1889;-43
2024/01/08 10:23:43;;;;;;;;;;;;;;;18.86;61.53;100428.66;7389233;19;1834;-43
2024/01/08 10:26:13;;;;;;;;;;;;;;;18.95;61.57;100457.28;7392290;19;1515;-43
2024/01/08 10:28:42;;;;;;;;;;;;;;;18.98;60.97;100459.69;7392698;19;1626;-42
2024/01/08 10:31:11;;;;;;;;;;;;;;;18.86;61.20;100444.72;7392893;19;1543;-43
2024/01/08 10:33:39;;;;;;;;;;;;;;;18.83;61.44;100458.44;7390699;19;1504;-43
2024/01/08 10:36:09;;;;;;;;;;;;;;;19.19;60.20;100462.19;7395220;19;1560;-43
2024/01/08 10:38:38;;;;;;;;;;;;;;;19.08;60.49;100454.31;7391758;19;1822;-43
2024/01/08 10:41:11;;;;;;;;;;;;;;;18.95;61.03;100459.97;7394151;19;1842;-44
2024/01/08 10:43:39;;;;;;;;;;;;;;;18.82;61.45;100464.75;7378291;19;1480;-43
2024/01/08 10:46:08;;;;;;;;;;;;;;;18.89;61.29;100471.25;7393696;19;1224;-42
2024/01/08 10:48:41;;;;;;;;;;;;;;;18.88;61.26;100473.09;7394416;19;1615;-42
2024/01/08 10:51:11;;;;;;;;;;;;;;;19.00;61.14;100465.75;7391577;19;1499;-43
2024/01/08 10:53:45;;;;;;;;;;;;;;;19.12;60.93;100473.63;7392145;19;1592;-42
2024/01/08 10:56:18;;;;;;;;;;;;;;;19.16;61.07;100485.75;7391496;19;1419;-42
2024/01/08 10:58:48;;;;;;;;;;;;;;;19.10;61.34;100472.91;7391933;19;1552;-43
2024/01/08 11:01:16;;;;;;;;;;;;;;;19.04;61.45;100480.56;7391288;19;1885;-42
2024/01/08 11:03:46;;;;;;;;;;;;;;;18.97;61.75;100479.44;7392716;19;1722;-43
2024/01/08 11:06:15;;;;;;;;;;;;;;;19.06;61.79;100477.75;7391176;19;1817;-43
2024/01/08 11:08:45;;;;;;;;;;;;;;;19.07;61.99;100485.63;7391146;19;1559;-42
2024/01/08 11:11:18;;;;;;;;;;;;;;;19.00;62.00;100479.16;7390103;19;1535;-42
2024/01/08 11:13:46;;;;;;;;;;;;;;;19.07;61.92;100482.94;7392459;19;1024;-42
2024/01/08 11:16:16;;;;;;;;;;;;;;;18.99;62.09;100493.53;7390939;19;1251;-42
2024/01/08 11:18:45;;;;;;;;;;;;;;;18.95;62.29;100496.66;7391307;19;1435;-42
2024/01/08 11:21:15;;;;;;;;;;;;;;;19.25;61.29;100514.38;7388432;19;1508;-41
2024/01/08 11:23:43;;;;;;;;;;;;;;;19.26;61.04;100500.00;7391110;19;1800;-42
2024/01/08 11:26:14;;;;;;;;;;;;;;;19.21;61.40;100502.25;7390694;19;1678;-42
2024/01/08 11:28:45;;;;;;;;;;;;;;;19.20;61.17;100512.16;7390132;19;1766;-41
2024/01/08 11:31:28;;;;;;;;;;;;;;;19.11;61.46;100509.47;7390068;19;1615;-42
2024/01/08 11:34:05;;;;;;;;;;;;;;;19.05;61.63;100508.19;7389767;19;1452;-45
2024/01/08 11:36:39;;;;;;;;;;;;;;;19.15;61.18;100514.38;7388102;19;1793;-42
2024/01/08 11:39:13;;;;;;;;;;;;;;;19.03;61.56;100515.53;7388830;19;1555;-42
2024/01/08 11:41:41;;;;;;;;;;;;;;;19.28;61.20;100511.44;7387866;19;1817;-42
2024/01/08 11:44:14;;;;;;;;;;;;;;;19.43;60.45;100533.25;7374714;19;1809;-42
2024/01/08 11:46:43;;;;;;;;;;;;;;;19.22;60.83;100520.03;7389960;19;1551;-42
2024/01/08 11:49:12;;;;;;;;;;;;;;;19.14;61.16;100531.47;7388903;19;1647;-42
2024/01/08 11:51:43;;;;;;;;;;;;;;;19.12;61.14;100540.63;7389002;19;1634;-42
2024/01/08 11:54:15;;;;;;;;;;;;;;;19.05;61.30;100525.13;7389930;19;1693;-42
2024/01/08 11:56:43;;;;;;;;;;;;;;;19.02;61.50;100540.63;7389509;19;1768;-42
2024/01/08 11:59:14;;;;;;;;;;;;;;;19.07;61.37;100538.38;7387961;19;1802;-41
2024/01/08 12:01:42;;;;;;;;;;;;;;;19.20;60.92;100549.66;7389968;19;1857;-42
2024/01/08 12:04:10;;;;;;;;;;;;;;;19.15;61.04;100553.75;7388583;19;1583;-42
2024/01/08 12:06:39;;;;;;;;;;;;;;;19.17;61.07;100541.06;7389632;19;1897;-42
2024/01/08 12:09:08;;;;;;;;;;;;;;;19.16;60.88;100560.81;7388781;19;1616;-41
2024/01/08 12:11:37;;;;;;;;;;;;;;;19.14;61.09;100570.81;7389500;19;1586;-42
2024/01/08 12:14:05;;;;;;;;;;;;;;;19.06;61.17;100568.88;7389378;19;1876;-42
2024/01/08 12:16:36;;;;;;;;;;;;;;;19.15;60.99;100568.00;7396211;19;1535;-42
2024/01/08 12:19:04;;;;;;;;;;;;;;;19.14;60.93;100562.78;7397428;19;1342;-42
2024/01/08 12:21:33;;;;;;;;;;;;;;;19.18;61.14;100572.22;7395540;19;1447;-42
2024/01/08 12:24:01;;;;;;;;;;;;;;;19.16;61.01;100591.16;7393562;19;1837;-42
2024/01/08 12:26:29;;;;;;;;;;;;;;;19.25;60.93;100600.16;7396962;19;1737;-42
2024/01/08 12:28:58;;;;;;;;;;;;;;;19.16;60.93;100596.50;7397355;19;1671;-42
2024/01/08 12:31:34;;;;;;;;;;;;;;;19.37;60.31;100592.84;7397926;19;1532;-42
2024/01/08 12:34:05;;;;;;;;;;;;;;;19.28;60.15;100594.53;7397054;19;1009;-43
2024/01/08 12:36:34;;;;;;;;;;;;;;;19.14;60.79;100598.50;7397072;19;1908;-42
2024/01/08 12:39:02;;;;;;;;;;;;;;;19.12;60.88;100613.00;7397274;19;1833;-42
2024/01/08 12:41:31;;;;;;;;;;;;;;;19.11;61.11;100614.00;7395177;19;1591;-42
2024/01/08 12:44:00;;;;;;;;;;;;;;;19.24;60.53;100615.41;7379752;19;1853;-42
2024/01/08 12:46:28;;;;;;;;;;;;;;;19.13;60.69;100618.22;7395238;19;1641;-43
2024/01/08 12:48:57;;;;;;;;;;;;;;;19.02;61.04;100618.34;7394111;19;1808;-42
2024/01/08 12:51:28;;;;;;;;;;;;;;;19.08;60.92;100625.84;7396302;19;1586;-42
2024/01/08 12:53:56;;;;;;;;;;;;;;;19.05;60.96;100629.63;7397134;19;1049;-42
2024/01/08 12:56:25;;;;;;;;;;;;;;;18.96;61.15;100621.59;7395325;19;1556;-42
2024/01/08 12:58:53;;;;;;;;;;;;;;;18.69;61.69;100645.31;7395910;19;1913;-42
2024/01/08 13:01:21;;;;;;;;;;;;;;;18.48;62.50;100649.91;7396664;19;1761;-42